Time,TemperatureF,DewpointF,PressureIn,WindDirection,WindDirectionDegrees,WindSpeedMPH,WindSpeedGustMPH,Humidity,HourlyPrecipIn,Conditions,Clouds,dailyrainin,SoftwareType,DateUTC
2018-01-17 00:00:00,53.6,51.0,30.32,North,360,0.0,0.0,89,0.00,,,0.00,weatherlink.com 1.10,2018-01-17 08:00:00,
2018-01-17 00:15:00,53.6,51.0,30.32,North,360,0.0,0.0,89,0.00,,,0.00,weatherlink.com 1.10,2018-01-17 08:15:00,
2018-01-17 00:30:00,53.6,51.0,30.32,North,360,0.0,0.0,89,0.00,,,0.00,weatherlink.com 1.10,2018-01-17 08:30:00,
2018-01-17 00:45:00,53.3,50.0,30.32,North,360,0.0,0.0,89,0.00,,,0.00,weatherlink.com 1.10,2018-01-17 08:45:00,
2018-01-17 01:00:00,53.0,50.0,30.32,North,360,0.0,0.0,90,0.00,,,0.00,weatherlink.com 1.10,2018-01-17 09:00:00,
2018-01-17 01:16:00,52.6,50.0,30.32,North,360,0.0,0.0,90,0.00,,,0.00,weatherlink.com 1.10,2018-01-17 09:16:00,
2018-01-17 01:31:00,52.1,49.0,30.32,North,360,0.0,0.0,90,0.00,,,0.00,weatherlink.com 1.10,2018-01-17 09:31:00,
2018-01-17 01:46:00,51.9,49.0,30.32,North,360,0.0,0.0,90,0.00,,,0.00,weatherlink.com 1.10,2018-01-17 09:46:00,
2018-01-17 02:01:00,51.6,49.0,30.32,North,360,0.0,0.0,90,0.00,,,0.00,weatherlink.com 1.10,2018-01-17 10:01:00,
2018-01-17 02:16:00,51.3,49.0,30.31,North,360,0.0,0.0,90,0.00,,,0.00,weatherlink.com 1.10,2018-01-17 10:16:00,
2018-01-17 02:31:00,51.2,48.0,30.32,North,360,0.0,0.0,90,0.00,,,0.00,weatherlink.com 1.10,2018-01-17 10:31:00,
2018-01-17 02:46:00,50.9,48.0,30.32,North,360,0.0,0.0,90,0.00,,,0.00,weatherlink.com 1.10,2018-01-17 10:46:00,
2018-01-17 03:01:00,50.6,48.0,30.31,North,360,0.0,0.0,91,0.00,,,0.00,weatherlink.com 1.10,2018-01-17 11:01:00,
2018-01-17 03:16:00,50.2,47.0,30.31,North,360,0.0,0.0,90,0.00,,,0.00,weatherlink.com 1.10,2018-01-17 11:16:00,
2018-01-17 03:31:00,50.1,48.0,30.31,North,360,0.0,0.0,91,0.00,,,0.00,weatherlink.com 1.10,2018-01-17 11:31:00,
2018-01-17 03:46:00,49.5,47.0,30.30,North,360,0.0,0.0,91,0.00,,,0.00,weatherlink.com 1.10,2018-01-17 11:46:00,
2018-01-17 04:01:00,49.4,47.0,30.30,North,360,0.0,0.0,91,0.00,,,0.00,weatherlink.com 1.10,2018-01-17 12:01:00,
2018-01-17 04:16:00,49.2,47.0,30.30,North,360,0.0,0.0,91,0.00,,,0.00,weatherlink.com 1.10,2018-01-17 12:16:00,
2018-01-17 04:31:00,48.7,46.0,30.30,North,360,0.0,0.0,91,0.00,,,0.00,weatherlink.com 1.10,2018-01-17 12:31:00,
2018-01-17 04:46:00,48.3,46.0,30.30,North,360,0.0,0.0,91,0.00,,,0.00,weatherlink.com 1.10,2018-01-17 12:46:00,
2018-01-17 05:01:00,48.0,46.0,30.30,North,360,0.0,0.0,91,0.00,,,0.00,weatherlink.com 1.10,2018-01-17 13:01:00,
2018-01-17 05:16:00,48.3,46.0,30.31,North,360,0.0,0.0,91,0.00,,,0.00,weatherlink.com 1.10,2018-01-17 13:16:00,
2018-01-17 05:31:00,48.3,46.0,30.30,North,360,0.0,0.0,91,0.00,,,0.00,weatherlink.com 1.10,2018-01-17 13:31:00,
2018-01-17 05:46:00,48.2,46.0,30.31,North,360,0.0,0.0,91,0.00,,,0.00,weatherlink.com 1.10,2018-01-17 13:46:00,
2018-01-17 06:01:00,48.1,46.0,30.32,North,360,0.0,0.0,92,0.00,,,0.00,weatherlink.com 1.10,2018-01-17 14:01:00,
2018-01-17 06:16:00,48.0,46.0,30.32,North,360,0.0,0.0,91,0.00,,,0.00,weatherlink.com 1.10,2018-01-17 14:16:00,
2018-01-17 06:31:00,47.9,46.0,30.33,North,360,0.0,0.0,91,0.00,,,0.00,weatherlink.com 1.10,2018-01-17 14:31:00,
2018-01-17 06:46:00,48.6,46.0,30.34,North,360,0.0,0.0,92,0.00,,,0.00,weatherlink.com 1.10,2018-01-17 14:46:00,
2018-01-17 07:01:00,48.4,46.0,30.34,North,360,0.0,0.0,92,0.00,,,0.00,weatherlink.com 1.10,2018-01-17 15:01:00,
2018-01-17 07:16:00,48.0,46.0,30.34,North,360,0.0,0.0,92,0.00,,,0.00,weatherlink.com 1.10,2018-01-17 15:16:00,
2018-01-17 07:31:00,48.3,46.0,30.35,North,360,0.0,0.0,92,0.00,,,0.00,weatherlink.com 1.10,2018-01-17 15:31:00,
2018-01-17 07:46:00,49.4,48.0,30.35,North,360,0.0,0.0,93,0.00,,,0.00,weatherlink.com 1.10,2018-01-17 15:46:00,
2018-01-17 08:01:00,52.3,50.0,30.36,North,360,0.0,0.0,93,0.00,,,0.00,weatherlink.com 1.10,2018-01-17 16:01:00,
2018-01-17 08:16:00,53.4,52.0,30.37,North,360,0.0,0.0,93,0.00,,,0.00,weatherlink.com 1.10,2018-01-17 16:16:00,
2018-01-17 08:31:00,54.6,53.0,30.37,NE,39,0.0,0.0,93,0.00,,,0.00,weatherlink.com 1.10,2018-01-17 16:31:00,
2018-01-17 08:46:00,55.5,53.0,30.37,ENE,61,1.0,2.0,92,0.00,,,0.00,weatherlink.com 1.10,2018-01-17 16:46:00,
2018-01-17 09:01:00,56.2,54.0,30.36,SE,124,1.0,3.0,92,0.00,,,0.00,weatherlink.com 1.10,2018-01-17 17:01:00,
2018-01-17 09:16:00,58.0,55.0,30.37,ESE,123,0.0,2.0,91,0.00,,,0.00,weatherlink.com 1.10,2018-01-17 17:16:00,
2018-01-17 09:31:00,59.4,56.0,30.37,East,95,0.0,2.0,89,0.00,,,0.00,weatherlink.com 1.10,2018-01-17 17:31:00,
2018-01-17 09:47:00,61.1,57.0,30.38,North,10,1.0,2.0,85,0.00,,,0.00,weatherlink.com 1.10,2018-01-17 17:47:00,
2018-01-17 10:02:00,62.7,56.0,30.37,NE,34,2.0,2.0,80,0.00,,,0.00,weatherlink.com 1.10,2018-01-17 18:02:00,
2018-01-17 10:17:00,64.5,55.0,30.37,NNW,342,3.0,3.0,72,0.00,,,0.00,weatherlink.com 1.10,2018-01-17 18:17:00,
2018-01-17 10:32:00,66.1,54.0,30.36,NE,54,1.0,2.0,66,0.00,,,0.00,weatherlink.com 1.10,2018-01-17 18:32:00,
2018-01-17 10:47:00,68.3,55.0,30.35,NW,312,0.0,2.0,62,0.00,,,0.00,weatherlink.com 1.10,2018-01-17 18:47:00,
2018-01-17 11:02:00,69.2,54.0,30.35,North,349,0.0,3.0,58,0.00,,,0.00,weatherlink.com 1.10,2018-01-17 19:02:00,
2018-01-17 11:17:00,70.5,53.0,30.35,SW,223,0.0,3.0,55,0.00,,,0.00,weatherlink.com 1.10,2018-01-17 19:17:00,
2018-01-17 11:32:00,71.3,53.0,30.34,SSE,152,1.0,2.0,52,0.00,,,0.00,weatherlink.com 1.10,2018-01-17 19:32:00,
2018-01-17 11:47:00,71.7,53.0,30.33,South,190,1.0,3.0,52,0.00,,,0.00,weatherlink.com 1.10,2018-01-17 19:47:00,
2018-01-17 12:08:00,72.6,54.0,30.33,WNW,283,1.0,2.0,52,0.00,,,0.00,weatherlink.com 1.10,2018-01-17 20:08:00,
2018-01-17 12:17:00,73.6,54.0,30.32,West,277,1.0,1.0,50,0.00,,,0.00,weatherlink.com 1.10,2018-01-17 20:17:00,